sensor_id;sensor_type;location;lat;lon;timestamp;pressure;altitude;pressure_sealevel;temperature;humidity
6859;BME280;3468;42.824;23.240;2023-05-12T00:00:10;68556.69;;;8.24;100.00
6859;BME280;3468;42.824;23.240;2023-05-12T00:02:37;68197.53;;;8.43;100.00
6859;BME280;3468;42.824;23.240;2023-05-12T00:05:04;68228.03;;;8.41;100.00
6859;BME280;3468;42.824;23.240;2023-05-12T00:07:31;68359.00;;;8.04;100.00
6859;BME280;3468;42.824;23.240;2023-05-12T00:10:00;68089.25;;;7.76;100.00
6859;BME280;3468;42.824;23.240;2023-05-12T00:12:27;68561.59;;;7.55;100.00
6859;BME280;3468;42.824;23.240;2023-05-12T00:14:54;68104.50;;;8.45;100.00
6859;BME280;3468;42.824;23.240;2023-05-12T00:17:21;68471.31;;;8.20;100.00
6859;BME280;3468;42.824;23.240;2023-05-12T00:19:47;68429.41;;;7.88;100.00
6859;BME280;3468;42.824;23.240;2023-05-12T00:22:14;68053.94;;;7.54;100.00
6859;BME280;3468;42.824;23.240;2023-05-12T00:24:41;68264.28;;;8.44;100.00
6859;BME280;3468;42.824;23.240;2023-05-12T00:27:09;68246.38;;;8.46;100.00
6859;BME280;3468;42.824;23.240;2023-05-12T00:29:36;68232.19;;;8.49;100.00
6859;BME280;3468;42.824;23.240;2023-05-12T00:32:03;68126.97;;;8.47;100.00
6859;BME280;3468;42.824;23.240;2023-05-12T00:34:30;68173.47;;;7.83;100.00
6859;BME280;3468;42.824;23.240;2023-05-12T00:36:56;68228.47;;;8.26;100.00
6859;BME280;3468;42.824;23.240;2023-05-12T00:39:23;68278.91;;;7.13;100.00
6859;BME280;3468;42.824;23.240;2023-05-12T00:41:54;68263.84;;;8.48;100.00
6859;BME280;3468;42.824;23.240;2023-05-12T00:44:22;68226.19;;;8.46;100.00
6859;BME280;3468;42.824;23.240;2023-05-12T00:46:49;68267.16;;;8.46;100.00
6859;BME280;3468;42.824;23.240;2023-05-12T00:49:16;68212.69;;;8.43;100.00
6859;BME280;3468;42.824;23.240;2023-05-12T00:51:43;68132.97;;;8.39;100.00
6859;BME280;3468;42.824;23.240;2023-05-12T00:54:11;68257.97;;;8.38;100.00
6859;BME280;3468;42.824;23.240;2023-05-12T00:56:38;68182.91;;;7.61;100.00
6859;BME280;3468;42.824;23.240;2023-05-12T00:59:05;68222.91;;;7.97;100.00
6859;BME280;3468;42.824;23.240;2023-05-12T01:01:34;67990.91;;;7.86;100.00
6859;BME280;3468;42.824;23.240;2023-05-12T01:04:01;68144.97;;;8.17;100.00
6859;BME280;3468;42.824;23.240;2023-05-12T01:06:31;68135.28;;;7.70;100.00
6859;BME280;3468;42.824;23.240;2023-05-12T01:09:02;68124.78;;;8.06;100.00
6859;BME280;3468;42.824;23.240;2023-05-12T01:11:29;68144.03;;;8.03;100.00
6859;BME280;3468;42.824;23.240;2023-05-12T01:13:56;68299.34;;;7.22;100.00
6859;BME280;3468;42.824;23.240;2023-05-12T01:16:27;68178.31;;;7.96;100.00
6859;BME280;3468;42.824;23.240;2023-05-12T01:18:56;67997.09;;;7.87;100.00
6859;BME280;3468;42.824;23.240;2023-05-12T01:21:23;68141.16;;;7.79;100.00
6859;BME280;3468;42.824;23.240;2023-05-12T01:23:55;68139.38;;;7.56;100.00
6859;BME280;3468;42.824;23.240;2023-05-12T01:26:25;68097.19;;;7.28;100.00
6859;BME280;3468;42.824;23.240;2023-05-12T01:28:54;68193.38;;;7.07;100.00
6859;BME280;3468;42.824;23.240;2023-05-12T01:31:22;68118.31;;;7.64;100.00
6859;BME280;3468;42.824;23.240;2023-05-12T01:33:49;68047.28;;;7.57;100.00
6859;BME280;3468;42.824;23.240;2023-05-12T01:36:16;68037.16;;;7.13;100.00
6859;BME280;3468;42.824;23.240;2023-05-12T01:38:43;68144.66;;;7.54;100.00
6859;BME280;3468;42.824;23.240;2023-05-12T01:41:09;68174.63;;;7.45;100.00
6859;BME280;3468;42.824;23.240;2023-05-12T01:43:38;68350.47;;;6.69;100.00
6859;BME280;3468;42.824;23.240;2023-05-12T01:46:04;67960.03;;;7.38;100.00
6859;BME280;3468;42.824;23.240;2023-05-12T01:48:31;68120.00;;;7.33;100.00
6859;BME280;3468;42.824;23.240;2023-05-12T01:50:58;68045.13;;;6.49;100.00
6859;BME280;3468;42.824;23.240;2023-05-12T01:53:25;68181.09;;;7.27;100.00
6859;BME280;3468;42.824;23.240;2023-05-12T01:55:52;68390.47;;;6.77;100.00
6859;BME280;3468;42.824;23.240;2023-05-12T01:58:19;68118.22;;;7.20;100.00
6859;BME280;3468;42.824;23.240;2023-05-12T02:00:47;68162.63;;;7.17;100.00
6859;BME280;3468;42.824;23.240;2023-05-12T02:03:14;68156.63;;;7.03;100.00
6859;BME280;3468;42.824;23.240;2023-05-12T02:05:40;68084.31;;;7.08;100.00
6859;BME280;3468;42.824;23.240;2023-05-12T02:08:07;68320.06;;;7.05;100.00
6859;BME280;3468;42.824;23.240;2023-05-12T02:10:34;68116.78;;;6.99;100.00
6859;BME280;3468;42.824;23.240;2023-05-12T02:13:01;68101.13;;;6.99;100.00
6859;BME280;3468;42.824;23.240;2023-05-12T02:15:28;68080.84;;;6.95;100.00
6859;BME280;3468;42.824;23.240;2023-05-12T02:17:56;68005.44;;;6.38;100.00
6859;BME280;3468;42.824;23.240;2023-05-12T02:20:22;68078.19;;;6.90;100.00
6859;BME280;3468;42.824;23.240;2023-05-12T02:22:49;68133.00;;;6.90;100.00
6859;BME280;3468;42.824;23.240;2023-05-12T02:25:16;68002.72;;;5.84;100.00
6859;BME280;3468;42.824;23.240;2023-05-12T02:27:43;68363.16;;;5.91;100.00
6859;BME280;3468;42.824;23.240;2023-05-12T02:30:10;68105.19;;;6.85;100.00
6859;BME280;3468;42.824;23.240;2023-05-12T02:32:37;68128.06;;;6.83;100.00
6859;BME280;3468;42.824;23.240;2023-05-12T02:35:06;68124.03;;;6.80;100.00
6859;BME280;3468;42.824;23.240;2023-05-12T02:37:33;68110.66;;;6.81;100.00
6859;BME280;3468;42.824;23.240;2023-05-12T02:40:00;68080.13;;;6.79;100.00
6859;BME280;3468;42.824;23.240;2023-05-12T02:42:27;68083.22;;;6.79;100.00
6859;BME280;3468;42.824;23.240;2023-05-12T02:44:59;68115.78;;;6.75;100.00
6859;BME280;3468;42.824;23.240;2023-05-12T02:47:26;68145.41;;;6.74;100.00
6859;BME280;3468;42.824;23.240;2023-05-12T02:49:55;68097.81;;;6.72;100.00
6859;BME280;3468;42.824;23.240;2023-05-12T02:52:23;68131.22;;;5.11;100.00
6859;BME280;3468;42.824;23.240;2023-05-12T02:54:50;68019.69;;;6.68;100.00
6859;BME280;3468;42.824;23.240;2023-05-12T02:57:17;68016.38;;;6.69;100.00
6859;BME280;3468;42.824;23.240;2023-05-12T02:59:44;68081.16;;;6.47;100.00
6859;BME280;3468;42.824;23.240;2023-05-12T03:02:11;68071.00;;;6.25;100.00
6859;BME280;3468;42.824;23.240;2023-05-12T03:04:37;67969.72;;;6.20;100.00
6859;BME280;3468;42.824;23.240;2023-05-12T03:07:04;68084.22;;;6.76;100.00
6859;BME280;3468;42.824;23.240;2023-05-12T03:09:32;68109.97;;;6.76;100.00
6859;BME280;3468;42.824;23.240;2023-05-12T03:11:59;67834.72;;;4.97;100.00
6859;BME280;3468;42.824;23.240;2023-05-12T03:14:26;67913.50;;;6.28;100.00
6859;BME280;3468;42.824;23.240;2023-05-12T03:16:54;68076.44;;;6.78;100.00
6859;BME280;3468;42.824;23.240;2023-05-12T03:19:20;67960.69;;;6.78;100.00
6859;BME280;3468;42.824;23.240;2023-05-12T03:21:47;68078.63;;;6.75;100.00
6859;BME280;3468;42.824;23.240;2023-05-12T03:24:14;68014.56;;;6.74;100.00
6859;BME280;3468;42.824;23.240;2023-05-12T03:26:42;68029.91;;;6.44;100.00
6859;BME280;3468;42.824;23.240;2023-05-12T03:29:09;68043.06;;;6.17;100.00
6859;BME280;3468;42.824;23.240;2023-05-12T03:31:36;67992.94;;;6.71;100.00
6859;BME280;3468;42.824;23.240;2023-05-12T03:34:03;68240.03;;;6.26;100.00
6859;BME280;3468;42.824;23.240;2023-05-12T03:36:30;68072.81;;;6.77;100.00
6859;BME280;3468;42.824;23.240;2023-05-12T03:38:57;68070.84;;;6.77;100.00
6859;BME280;3468;42.824;23.240;2023-05-12T03:41:24;67982.84;;;6.60;100.00
6859;BME280;3468;42.824;23.240;2023-05-12T03:43:52;67977.16;;;6.77;100.00
6859;BME280;3468;42.824;23.240;2023-05-12T03:46:19;67935.06;;;6.82;100.00
6859;BME280;3468;42.824;23.240;2023-05-12T03:48:47;67887.03;;;6.84;100.00
6859;BME280;3468;42.824;23.240;2023-05-12T03:51:13;68090.34;;;6.10;100.00
6859;BME280;3468;42.824;23.240;2023-05-12T03:53:40;68006.22;;;6.87;100.00
6859;BME280;3468;42.824;23.240;2023-05-12T03:56:09;68192.97;;;6.48;100.00
6859;BME280;3468;42.824;23.240;2023-05-12T03:58:36;68040.09;;;6.88;100.00
6859;BME280;3468;42.824;23.240;2023-05-12T04:01:04;68114.03;;;6.91;100.00
6859;BME280;3468;42.824;23.240;2023-05-12T04:03:31;67966.66;;;6.92;100.00
6859;BME280;3468;42.824;23.240;2023-05-12T04:05:58;68018.91;;;6.69;100.00
6859;BME280;3468;42.824;23.240;2023-05-12T04:08:26;67943.88;;;6.16;100.00
6859;BME280;3468;42.824;23.240;2023-05-12T04:10:54;68345.72;;;5.96;100.00
6859;BME280;3468;42.824;23.240;2023-05-12T04:13:21;68122.47;;;6.94;100.00
6859;BME280;3468;42.824;23.240;2023-05-12T04:15:48;67922.16;;;5.69;100.00
6859;BME280;3468;42.824;23.240;2023-05-12T04:18:17;68418.50;;;6.80;100.00
6859;BME280;3468;42.824;23.240;2023-05-12T04:20:44;68265.66;;;5.98;100.00
6859;BME280;3468;42.824;23.240;2023-05-12T04:23:10;68004.44;;;7.02;100.00
6859;BME280;3468;42.824;23.240;2023-05-12T04:25:39;68113.59;;;7.05;100.00
6859;BME280;3468;42.824;23.240;2023-05-12T04:28:07;68039.69;;;7.02;100.00
6859;BME280;3468;42.824;23.240;2023-05-12T04:30:33;68071.38;;;7.06;100.00
6859;BME280;3468;42.824;23.240;2023-05-12T04:33:01;68250.31;;;6.24;100.00
6859;BME280;3468;42.824;23.240;2023-05-12T04:35:30;68008.91;;;7.13;100.00
6859;BME280;3468;42.824;23.240;2023-05-12T04:37:56;68035.47;;;6.73;100.00
6859;BME280;3468;42.824;23.240;2023-05-12T04:40:25;68087.91;;;7.16;100.00
6859;BME280;3468;42.824;23.240;2023-05-12T04:42:52;68074.28;;;7.19;100.00
6859;BME280;3468;42.824;23.240;2023-05-12T04:45:19;68070.63;;;6.51;100.00
6859;BME280;3468;42.824;23.240;2023-05-12T04:47:46;68054.59;;;7.26;100.00
6859;BME280;3468;42.824;23.240;2023-05-12T04:50:13;68074.53;;;7.28;100.00
6859;BME280;3468;42.824;23.240;2023-05-12T04:52:41;68030.31;;;7.29;100.00
6859;BME280;3468;42.824;23.240;2023-05-12T04:55:08;67936.91;;;7.31;100.00
6859;BME280;3468;42.824;23.240;2023-05-12T04:57:35;68301.94;;;6.64;100.00
6859;BME280;3468;42.824;23.240;2023-05-12T05:00:02;68116.22;;;6.99;100.00
6859;BME280;3468;42.824;23.240;2023-05-12T05:02:29;68128.94;;;7.42;100.00
6859;BME280;3468;42.824;23.240;2023-05-12T05:04:56;67991.41;;;6.17;100.00
6859;BME280;3468;42.824;23.240;2023-05-12T05:07:23;68017.88;;;7.44;100.00
6859;BME280;3468;42.824;23.240;2023-05-12T05:09:51;68025.72;;;7.03;100.00
6859;BME280;3468;42.824;23.240;2023-05-12T05:12:18;67996.09;;;7.47;100.00
6859;BME280;3468;42.824;23.240;2023-05-12T05:14:45;68008.47;;;7.49;100.00
6859;BME280;3468;42.824;23.240;2023-05-12T05:17:12;68455.28;;;6.59;100.00
6859;BME280;3468;42.824;23.240;2023-05-12T05:19:39;68103.09;;;6.70;100.00
6859;BME280;3468;42.824;23.240;2023-05-12T05:22:06;68001.50;;;6.57;100.00
6859;BME280;3468;42.824;23.240;2023-05-12T05:24:33;68084.41;;;7.63;100.00
6859;BME280;3468;42.824;23.240;2023-05-12T05:27:01;68212.28;;;7.69;100.00
6859;BME280;3468;42.824;23.240;2023-05-12T05:29:28;68196.91;;;7.60;100.00
6859;BME280;3468;42.824;23.240;2023-05-12T05:31:55;67757.19;;;6.00;100.00
6859;BME280;3468;42.824;23.240;2023-05-12T05:34:22;67971.81;;;7.50;100.00
6859;BME280;3468;42.824;23.240;2023-05-12T05:36:48;68102.56;;;6.92;100.00
6859;BME280;3468;42.824;23.240;2023-05-12T05:39:15;68184.16;;;7.55;100.00
6859;BME280;3468;42.824;23.240;2023-05-12T05:41:42;68180.69;;;7.81;100.00
6859;BME280;3468;42.824;23.240;2023-05-12T05:44:10;68209.53;;;7.81;100.00
6859;BME280;3468;42.824;23.240;2023-05-12T05:46:37;68203.16;;;7.82;100.00
6859;BME280;3468;42.824;23.240;2023-05-12T05:49:03;68215.09;;;7.88;100.00
6859;BME280;3468;42.824;23.240;2023-05-12T05:51:30;68191.00;;;7.89;100.00
6859;BME280;3468;42.824;23.240;2023-05-12T05:53:57;68179.34;;;7.92;100.00
6859;BME280;3468;42.824;23.240;2023-05-12T05:56:24;68228.72;;;7.96;100.00
6859;BME280;3468;42.824;23.240;2023-05-12T05:58:51;68173.38;;;8.00;100.00
6859;BME280;3468;42.824;23.240;2023-05-12T06:01:19;68228.41;;;8.04;100.00
6859;BME280;3468;42.824;23.240;2023-05-12T06:03:46;68131.25;;;7.55;100.00
6859;BME280;3468;42.824;23.240;2023-05-12T06:06:12;68194.09;;;7.90;100.00
6859;BME280;3468;42.824;23.240;2023-05-12T06:08:39;68222.22;;;8.03;100.00
6859;BME280;3468;42.824;23.240;2023-05-12T06:11:05;68209.38;;;8.05;100.00
6859;BME280;3468;42.824;23.240;2023-05-12T06:13:32;68218.44;;;8.09;100.00
6859;BME280;3468;42.824;23.240;2023-05-12T06:16:00;68221.53;;;8.09;100.00
6859;BME280;3468;42.824;23.240;2023-05-12T06:18:28;68222.72;;;8.10;100.00
6859;BME280;3468;42.824;23.240;2023-05-12T06:20:58;68223.63;;;8.13;100.00
6859;BME280;3468;42.824;23.240;2023-05-12T06:23:24;68208.41;;;8.20;100.00
6859;BME280;3468;42.824;23.240;2023-05-12T06:25:51;68233.63;;;8.20;100.00
6859;BME280;3468;42.824;23.240;2023-05-12T06:28:18;68233.75;;;8.24;100.00
6859;BME280;3468;42.824;23.240;2023-05-12T06:30:44;68242.00;;;8.29;100.00
6859;BME280;3468;42.824;23.240;2023-05-12T06:33:11;68234.22;;;8.31;100.00
6859;BME280;3468;42.824;23.240;2023-05-12T06:35:39;68234.69;;;8.38;100.00
6859;BME280;3468;42.824;23.240;2023-05-12T06:38:06;68204.09;;;7.96;100.00
6859;BME280;3468;42.824;23.240;2023-05-12T06:40:33;68239.63;;;8.44;100.00
6859;BME280;3468;42.824;23.240;2023-05-12T06:42:59;68278.41;;;8.47;100.00
6859;BME280;3468;42.824;23.240;2023-05-12T06:45:27;68198.78;;;8.48;100.00
6859;BME280;3468;42.824;23.240;2023-05-12T06:47:53;68243.19;;;8.52;100.00
6859;BME280;3468;42.824;23.240;2023-05-12T06:50:21;68260.63;;;8.54;100.00
6859;BME280;3468;42.824;23.240;2023-05-12T06:52:49;68258.34;;;8.63;100.00
6859;BME280;3468;42.824;23.240;2023-05-12T06:55:16;68243.63;;;8.26;100.00
6859;BME280;3468;42.824;23.240;2023-05-12T06:57:44;68267.88;;;8.73;100.00
6859;BME280;3468;42.824;23.240;2023-05-12T07:00:12;68308.41;;;8.77;100.00
6859;BME280;3468;42.824;23.240;2023-05-12T07:02:39;68282.34;;;8.79;100.00
6859;BME280;3468;42.824;23.240;2023-05-12T07:05:06;68273.97;;;8.91;100.00
6859;BME280;3468;42.824;23.240;2023-05-12T07:07:33;68301.31;;;9.06;100.00
6859;BME280;3468;42.824;23.240;2023-05-12T07:10:02;68298.34;;;8.99;100.00
6859;BME280;3468;42.824;23.240;2023-05-12T07:12:30;68303.19;;;9.12;100.00
6859;BME280;3468;42.824;23.240;2023-05-12T07:14:57;68241.59;;;8.76;100.00
6859;BME280;3468;42.824;23.240;2023-05-12T07:17:24;68321.63;;;9.00;100.00
6859;BME280;3468;42.824;23.240;2023-05-12T07:19:51;68304.88;;;9.03;100.00
6859;BME280;3468;42.824;23.240;2023-05-12T07:22:17;68313.50;;;9.10;100.00
6859;BME280;3468;42.824;23.240;2023-05-12T07:24:44;68314.66;;;9.22;100.00
6859;BME280;3468;42.824;23.240;2023-05-12T07:27:12;68335.09;;;9.20;100.00
6859;BME280;3468;42.824;23.240;2023-05-12T07:29:39;68303.41;;;9.21;100.00
6859;BME280;3468;42.824;23.240;2023-05-12T07:32:06;68388.41;;;9.29;100.00
6859;BME280;3468;42.824;23.240;2023-05-12T07:34:33;68334.66;;;9.35;100.00
6859;BME280;3468;42.824;23.240;2023-05-12T07:36:59;68321.22;;;9.36;100.00
6859;BME280;3468;42.824;23.240;2023-05-12T07:39:28;68332.69;;;9.35;100.00
6859;BME280;3468;42.824;23.240;2023-05-12T07:41:56;68265.94;;;9.17;100.00
6859;BME280;3468;42.824;23.240;2023-05-12T07:44:25;68268.16;;;9.04;100.00
6859;BME280;3468;42.824;23.240;2023-05-12T07:46:52;68355.56;;;9.40;100.00
6859;BME280;3468;42.824;23.240;2023-05-12T07:49:18;68343.72;;;9.49;100.00
6859;BME280;3468;42.824;23.240;2023-05-12T07:51:46;68376.16;;;9.53;100.00
6859;BME280;3468;42.824;23.240;2023-05-12T07:54:13;68361.78;;;9.51;100.00
6859;BME280;3468;42.824;23.240;2023-05-12T07:56:39;68335.25;;;9.57;100.00
6859;BME280;3468;42.824;23.240;2023-05-12T07:59:06;68319.94;;;9.63;100.00
6859;BME280;3468;42.824;23.240;2023-05-12T08:01:35;68386.06;;;9.77;100.00
6859;BME280;3468;42.824;23.240;2023-05-12T08:04:02;68406.50;;;9.86;100.00
6859;BME280;3468;42.824;23.240;2023-05-12T08:06:28;68423.66;;;9.85;100.00
6859;BME280;3468;42.824;23.240;2023-05-12T08:08:55;68368.91;;;9.77;100.00
6859;BME280;3468;42.824;23.240;2023-05-12T08:11:23;68387.44;;;9.97;100.00
6859;BME280;3468;42.824;23.240;2023-05-12T08:13:50;68385.72;;;10.18;100.00
6859;BME280;3468;42.824;23.240;2023-05-12T08:16:17;68411.47;;;10.25;100.00
6859;BME280;3468;42.824;23.240;2023-05-12T08:18:45;68420.44;;;10.34;100.00
6859;BME280;3468;42.824;23.240;2023-05-12T08:21:12;68407.81;;;10.24;100.00
6859;BME280;3468;42.824;23.240;2023-05-12T08:23:38;68429.19;;;10.46;100.00
6859;BME280;3468;42.824;23.240;2023-05-12T08:26:05;68468.53;;;10.67;100.00
6859;BME280;3468;42.824;23.240;2023-05-12T08:28:32;68450.94;;;10.72;100.00
6859;BME280;3468;42.824;23.240;2023-05-12T08:30:58;68470.84;;;10.69;100.00
6859;BME280;3468;42.824;23.240;2023-05-12T08:33:25;68464.13;;;10.94;100.00
6859;BME280;3468;42.824;23.240;2023-05-12T08:35:54;68485.09;;;10.99;100.00
6859;BME280;3468;42.824;23.240;2023-05-12T08:38:20;68416.75;;;10.44;100.00
6859;BME280;3468;42.824;23.240;2023-05-12T08:41:04;68399.81;;;11.13;100.00
6859;BME280;3468;42.824;23.240;2023-05-12T08:43:37;68471.25;;;10.98;100.00
6859;BME280;3468;42.824;23.240;2023-05-12T08:46:04;68487.59;;;11.10;100.00
6859;BME280;3468;42.824;23.240;2023-05-12T08:48:33;68532.75;;;11.46;100.00
6859;BME280;3468;42.824;23.240;2023-05-12T08:51:01;68513.63;;;11.25;100.00
6859;BME280;3468;42.824;23.240;2023-05-12T08:53:28;68529.84;;;11.44;100.00
6859;BME280;3468;42.824;23.240;2023-05-12T08:55:56;68482.03;;;11.35;100.00
6859;BME280;3468;42.824;23.240;2023-05-12T08:58:26;68536.56;;;11.52;100.00
6859;BME280;3468;42.824;23.240;2023-05-12T09:00:53;68585.06;;;11.76;100.00
6859;BME280;3468;42.824;23.240;2023-05-12T09:03:20;68506.53;;;11.69;100.00
6859;BME280;3468;42.824;23.240;2023-05-12T09:05:48;68514.88;;;11.42;100.00
6859;BME280;3468;42.824;23.240;2023-05-12T09:08:17;68510.94;;;11.64;100.00
6859;BME280;3468;42.824;23.240;2023-05-12T09:10:44;68547.91;;;11.79;100.00
6859;BME280;3468;42.824;23.240;2023-05-12T09:13:14;68560.38;;;11.70;100.00
6859;BME280;3468;42.824;23.240;2023-05-12T09:15:44;68543.00;;;11.40;100.00
6859;BME280;3468;42.824;23.240;2023-05-12T09:18:12;68549.13;;;11.58;100.00
6859;BME280;3468;42.824;23.240;2023-05-12T09:20:39;68539.75;;;11.67;100.00
6859;BME280;3468;42.824;23.240;2023-05-12T09:23:13;68391.75;;;11.06;100.00
6859;BME280;3468;42.824;23.240;2023-05-12T09:25:42;68541.59;;;11.73;100.00
6859;BME280;3468;42.824;23.240;2023-05-12T09:28:09;68519.72;;;11.92;100.00
6859;BME280;3468;42.824;23.240;2023-05-12T09:30:36;68543.31;;;11.75;100.00
6859;BME280;3468;42.824;23.240;2023-05-12T09:33:06;68575.56;;;11.92;100.00
6859;BME280;3468;42.824;23.240;2023-05-12T09:35:37;68569.28;;;12.12;100.00
6859;BME280;3468;42.824;23.240;2023-05-12T09:38:05;68575.16;;;12.11;100.00
6859;BME280;3468;42.824;23.240;2023-05-12T09:40:32;68595.25;;;12.13;100.00
6859;BME280;3468;42.824;23.240;2023-05-12T09:43:00;68580.13;;;12.17;100.00
6859;BME280;3468;42.824;23.240;2023-05-12T09:45:27;68651.97;;;12.48;100.00
6859;BME280;3468;42.824;23.240;2023-05-12T09:47:54;68629.91;;;12.84;100.00
6859;BME280;3468;42.824;23.240;2023-05-12T09:50:22;68670.88;;;13.08;99.60
6859;BME280;3468;42.824;23.240;2023-05-12T09:52:49;68694.25;;;12.93;96.94
6859;BME280;3468;42.824;23.240;2023-05-12T09:55:16;68708.09;;;13.31;97.71
6859;BME280;3468;42.824;23.240;2023-05-12T09:57:43;68711.38;;;13.52;99.52
6859;BME280;3468;42.824;23.240;2023-05-12T10:00:13;68735.41;;;13.63;93.88
6859;BME280;3468;42.824;23.240;2023-05-12T10:02:41;68751.50;;;13.88;99.40
6859;BME280;3468;42.824;23.240;2023-05-12T10:05:12;68831.66;;;14.42;91.03
6859;BME280;3468;42.824;23.240;2023-05-12T10:07:39;68774.66;;;14.39;87.49
6859;BME280;3468;42.824;23.240;2023-05-12T10:10:07;68810.34;;;14.39;90.10
6859;BME280;3468;42.824;23.240;2023-05-12T10:12:36;68863.84;;;14.02;88.20
6859;BME280;3468;42.824;23.240;2023-05-12T10:15:05;68713.09;;;14.05;89.06
6859;BME280;3468;42.824;23.240;2023-05-12T10:17:35;68816.78;;;14.22;95.45
6859;BME280;3468;42.824;23.240;2023-05-12T10:20:03;68837.31;;;14.42;93.38
6859;BME280;3468;42.824;23.240;2023-05-12T10:22:32;68850.03;;;14.68;89.84
6859;BME280;3468;42.824;23.240;2023-05-12T10:24:59;68792.50;;;14.39;87.59
6859;BME280;3468;42.824;23.240;2023-05-12T10:27:28;68778.75;;;14.46;89.42
6859;BME280;3468;42.824;23.240;2023-05-12T10:29:55;68807.66;;;14.45;89.49
6859;BME280;3468;42.824;23.240;2023-05-12T10:32:22;68886.09;;;14.71;91.38
6859;BME280;3468;42.824;23.240;2023-05-12T10:34:50;68858.00;;;14.55;87.69
6859;BME280;3468;42.824;23.240;2023-05-12T10:37:16;68741.72;;;14.06;86.59
6859;BME280;3468;42.824;23.240;2023-05-12T10:39:47;68773.81;;;14.25;93.02
6859;BME280;3468;42.824;23.240;2023-05-12T10:42:16;68849.50;;;14.42;85.49
6859;BME280;3468;42.824;23.240;2023-05-12T10:44:53;68830.91;;;14.47;85.54
6859;BME280;3468;42.824;23.240;2023-05-12T10:47:22;68848.56;;;14.80;89.20
6859;BME280;3468;42.824;23.240;2023-05-12T10:49:55;68857.66;;;14.53;83.49
6859;BME280;3468;42.824;23.240;2023-05-12T10:52:23;68814.44;;;14.73;87.63
6859;BME280;3468;42.824;23.240;2023-05-12T10:54:58;68863.53;;;14.62;82.78
6859;BME280;3468;42.824;23.240;2023-05-12T10:57:26;68807.78;;;14.39;83.39
6859;BME280;3468;42.824;23.240;2023-05-12T10:59:56;68892.38;;;14.87;83.74
6859;BME280;3468;42.824;23.240;2023-05-12T11:02:24;68790.34;;;14.30;83.31
6859;BME280;3468;42.824;23.240;2023-05-12T11:04:57;68835.41;;;14.73;89.17
6859;BME280;3468;42.824;23.240;2023-05-12T11:07:25;68853.22;;;14.84;84.75
6859;BME280;3468;42.824;23.240;2023-05-12T11:09:53;68775.91;;;14.59;86.55
6859;BME280;3468;42.824;23.240;2023-05-12T11:12:20;68860.63;;;14.86;83.54
6859;BME280;3468;42.824;23.240;2023-05-12T11:14:47;68913.34;;;15.14;89.65
6859;BME280;3468;42.824;23.240;2023-05-12T11:17:14;68874.53;;;15.29;84.23
6859;BME280;3468;42.824;23.240;2023-05-12T11:19:44;68898.34;;;15.01;81.49
6859;BME280;3468;42.824;23.240;2023-05-12T11:22:16;68793.50;;;14.61;78.52
6859;BME280;3468;42.824;23.240;2023-05-12T11:24:43;68786.97;;;14.32;80.03
6859;BME280;3468;42.824;23.240;2023-05-12T11:27:12;68782.25;;;14.23;81.35
6859;BME280;3468;42.824;23.240;2023-05-12T11:29:39;68835.84;;;14.28;79.79
6859;BME280;3468;42.824;23.240;2023-05-12T11:32:07;68802.03;;;14.34;76.22
6859;BME280;3468;42.824;23.240;2023-05-12T11:34:34;68809.56;;;14.55;81.60
6859;BME280;3468;42.824;23.240;2023-05-12T11:37:03;68824.06;;;14.46;79.97
6859;BME280;3468;42.824;23.240;2023-05-12T11:39:32;68828.13;;;14.49;78.55
6859;BME280;3468;42.824;23.240;2023-05-12T11:42:01;68836.69;;;14.52;78.83
6859;BME280;3468;42.824;23.240;2023-05-12T11:44:28;68825.81;;;14.47;78.35
6859;BME280;3468;42.824;23.240;2023-05-12T11:46:56;68839.44;;;14.35;80.32
6859;BME280;3468;42.824;23.240;2023-05-12T11:49:23;68809.94;;;14.21;80.97
6859;BME280;3468;42.824;23.240;2023-05-12T11:51:51;68801.97;;;14.18;80.44
6859;BME280;3468;42.824;23.240;2023-05-12T11:54:18;68810.34;;;14.12;81.68
6859;BME280;3468;42.824;23.240;2023-05-12T11:56:51;68788.38;;;14.05;79.86
6859;BME280;3468;42.824;23.240;2023-05-12T11:59:28;68708.59;;;13.80;82.19
6859;BME280;3468;42.824;23.240;2023-05-12T12:01:55;68782.47;;;14.06;82.50
6859;BME280;3468;42.824;23.240;2023-05-12T12:04:33;68783.88;;;13.94;81.43
6859;BME280;3468;42.824;23.240;2023-05-12T12:07:00;68776.00;;;13.96;81.34
6859;BME280;3468;42.824;23.240;2023-05-12T12:09:31;68683.91;;;13.89;82.55
6859;BME280;3468;42.824;23.240;2023-05-12T12:12:00;68761.63;;;13.99;83.55
6859;BME280;3468;42.824;23.240;2023-05-12T12:14:29;68781.88;;;14.05;83.43
6859;BME280;3468;42.824;23.240;2023-05-12T12:16:56;68783.31;;;13.94;80.53
6859;BME280;3468;42.824;23.240;2023-05-12T12:19:23;68740.00;;;13.94;80.60
6859;BME280;3468;42.824;23.240;2023-05-12T12:21:50;68759.06;;;13.99;81.61
6859;BME280;3468;42.824;23.240;2023-05-12T12:24:17;68778.50;;;14.07;82.22
6859;BME280;3468;42.824;23.240;2023-05-12T12:26:44;68773.91;;;14.03;81.55
6859;BME280;3468;42.824;23.240;2023-05-12T12:29:12;68794.22;;;14.14;83.00
6859;BME280;3468;42.824;23.240;2023-05-12T12:31:39;68791.16;;;14.03;81.88
6859;BME280;3468;42.824;23.240;2023-05-12T12:34:05;68767.41;;;14.04;81.61
6859;BME280;3468;42.824;23.240;2023-05-12T12:36:32;68756.00;;;14.14;79.00
6859;BME280;3468;42.824;23.240;2023-05-12T12:39:00;68800.69;;;14.24;78.44
6859;BME280;3468;42.824;23.240;2023-05-12T12:41:27;68829.38;;;14.29;78.85
6859;BME280;3468;42.824;23.240;2023-05-12T12:43:53;68808.41;;;14.28;78.55
6859;BME280;3468;42.824;23.240;2023-05-12T12:46:22;68790.34;;;14.30;75.65
6859;BME280;3468;42.824;23.240;2023-05-12T12:48:48;68847.66;;;14.36;76.94
6859;BME280;3468;42.824;23.240;2023-05-12T12:51:15;68757.94;;;14.24;76.76
6859;BME280;3468;42.824;23.240;2023-05-12T12:53:42;68809.09;;;14.33;75.79
6859;BME280;3468;42.824;23.240;2023-05-12T12:56:10;68773.31;;;14.29;75.72
6859;BME280;3468;42.824;23.240;2023-05-12T12:58:37;68818.94;;;14.31;77.09
6859;BME280;3468;42.824;23.240;2023-05-12T13:01:04;68818.03;;;14.28;78.77
6859;BME280;3468;42.824;23.240;2023-05-12T13:03:34;68817.56;;;14.32;77.84
6859;BME280;3468;42.824;23.240;2023-05-12T13:06:01;68806.00;;;14.22;77.27
6859;BME280;3468;42.824;23.240;2023-05-12T13:08:28;68812.03;;;14.25;77.77
6859;BME280;3468;42.824;23.240;2023-05-12T13:10:54;68788.03;;;14.28;76.75